sensor_id;sensor_type;location;lat;lon;timestamp;P1;durP1;ratioP1;P2;durP2;ratioP2
30681;SDS011;17439;48.092;11.842;2023-02-28T00:01:18;2.53;;;1.90;;
30681;SDS011;17439;48.092;11.842;2023-02-28T00:03:44;2.97;;;1.45;;
30681;SDS011;17439;48.092;11.842;2023-02-28T00:06:11;5.00;;;1.48;;
30681;SDS011;17439;48.092;11.842;2023-02-28T00:08:38;2.88;;;1.35;;
30681;SDS011;17439;48.092;11.842;2023-02-28T00:11:06;4.00;;;1.60;;
30681;SDS011;17439;48.092;11.842;2023-02-28T00:13:36;2.25;;;1.40;;
30681;SDS011;17439;48.092;11.842;2023-02-28T00:16:06;4.63;;;1.60;;
30681;SDS011;17439;48.092;11.842;2023-02-28T00:18:40;5.45;;;2.00;;
30681;SDS011;17439;48.092;11.842;2023-02-28T00:21:08;5.95;;;1.98;;
30681;SDS011;17439;48.092;11.842;2023-02-28T00:23:35;3.37;;;1.73;;
30681;SDS011;17439;48.092;11.842;2023-02-28T00:26:02;4.03;;;1.92;;
30681;SDS011;17439;48.092;11.842;2023-02-28T00:28:29;3.50;;;1.55;;
30681;SDS011;17439;48.092;11.842;2023-02-28T00:30:58;2.38;;;1.70;;
30681;SDS011;17439;48.092;11.842;2023-02-28T00:33:25;3.27;;;1.67;;
30681;SDS011;17439;48.092;11.842;2023-02-28T00:36:00;2.83;;;1.77;;
30681;SDS011;17439;48.092;11.842;2023-02-28T00:38:37;5.15;;;2.17;;
30681;SDS011;17439;48.092;11.842;2023-02-28T00:41:05;2.20;;;1.40;;
30681;SDS011;17439;48.092;11.842;2023-02-28T00:43:33;1.77;;;1.50;;
30681;SDS011;17439;48.092;11.842;2023-02-28T00:46:02;3.50;;;1.40;;
30681;SDS011;17439;48.092;11.842;2023-02-28T00:48:30;2.47;;;1.23;;
30681;SDS011;17439;48.092;11.842;2023-02-28T00:50:57;5.35;;;1.52;;
30681;SDS011;17439;48.092;11.842;2023-02-28T00:53:24;2.03;;;1.42;;
30681;SDS011;17439;48.092;11.842;2023-02-28T00:55:50;3.25;;;1.50;;
30681;SDS011;17439;48.092;11.842;2023-02-28T00:58:17;3.53;;;1.77;;
30681;SDS011;17439;48.092;11.842;2023-02-28T01:00:44;2.50;;;1.40;;
30681;SDS011;17439;48.092;11.842;2023-02-28T01:03:10;5.07;;;1.90;;
30681;SDS011;17439;48.092;11.842;2023-02-28T01:05:37;5.05;;;2.15;;
30681;SDS011;17439;48.092;11.842;2023-02-28T01:08:03;3.17;;;1.70;;
30681;SDS011;17439;48.092;11.842;2023-02-28T01:10:30;2.92;;;2.20;;
30681;SDS011;17439;48.092;11.842;2023-02-28T01:12:57;6.90;;;2.17;;
30681;SDS011;17439;48.092;11.842;2023-02-28T01:15:23;5.18;;;2.38;;
30681;SDS011;17439;48.092;11.842;2023-02-28T01:17:50;26.05;;;9.60;;
30681;SDS011;17439;48.092;11.842;2023-02-28T01:20:17;18.88;;;7.90;;
30681;SDS011;17439;48.092;11.842;2023-02-28T01:22:43;17.10;;;5.07;;
30681;SDS011;17439;48.092;11.842;2023-02-28T01:25:10;10.77;;;3.40;;
30681;SDS011;17439;48.092;11.842;2023-02-28T01:27:36;9.48;;;3.58;;
30681;SDS011;17439;48.092;11.842;2023-02-28T01:30:03;4.38;;;2.53;;
30681;SDS011;17439;48.092;11.842;2023-02-28T01:32:30;7.45;;;3.38;;
30681;SDS011;17439;48.092;11.842;2023-02-28T01:34:57;5.50;;;2.42;;
30681;SDS011;17439;48.092;11.842;2023-02-28T01:37:23;4.50;;;2.03;;
30681;SDS011;17439;48.092;11.842;2023-02-28T01:39:50;3.33;;;1.75;;
30681;SDS011;17439;48.092;11.842;2023-02-28T01:42:19;5.80;;;2.50;;
30681;SDS011;17439;48.092;11.842;2023-02-28T01:47:46;4.30;;;2.00;;
30681;SDS011;17439;48.092;11.842;2023-02-28T01:50:21;3.03;;;2.05;;
30681;SDS011;17439;48.092;11.842;2023-02-28T01:52:51;4.47;;;2.25;;
30681;SDS011;17439;48.092;11.842;2023-02-28T01:55:22;5.20;;;2.40;;
30681;SDS011;17439;48.092;11.842;2023-02-28T01:57:52;2.83;;;1.73;;
30681;SDS011;17439;48.092;11.842;2023-02-28T02:00:24;3.88;;;1.88;;
30681;SDS011;17439;48.092;11.842;2023-02-28T02:02:54;3.47;;;2.03;;
30681;SDS011;17439;48.092;11.842;2023-02-28T02:05:24;5.25;;;2.03;;
30681;SDS011;17439;48.092;11.842;2023-02-28T02:07:54;4.85;;;2.78;;
30681;SDS011;17439;48.092;11.842;2023-02-28T02:10:31;4.18;;;2.22;;
30681;SDS011;17439;48.092;11.842;2023-02-28T02:18:54;5.18;;;1.85;;
30681;SDS011;17439;48.092;11.842;2023-02-28T02:33:16;5.50;;;1.77;;
30681;SDS011;17439;48.092;11.842;2023-02-28T02:36:04;4.57;;;2.00;;
30681;SDS011;17439;48.092;11.842;2023-02-28T02:46:48;5.47;;;2.42;;
30681;SDS011;17439;48.092;11.842;2023-02-28T02:49:22;5.38;;;1.73;;
30681;SDS011;17439;48.092;11.842;2023-02-28T02:51:54;7.30;;;1.92;;
30681;SDS011;17439;48.092;11.842;2023-02-28T02:54:27;5.40;;;1.63;;
30681;SDS011;17439;48.092;11.842;2023-02-28T02:57:00;5.40;;;1.60;;
30681;SDS011;17439;48.092;11.842;2023-02-28T02:59:31;4.68;;;2.30;;
30681;SDS011;17439;48.092;11.842;2023-02-28T03:02:00;3.88;;;2.13;;
30681;SDS011;17439;48.092;11.842;2023-02-28T03:05:14;5.38;;;2.58;;
30681;SDS011;17439;48.092;11.842;2023-02-28T03:07:22;2.88;;;1.40;;
30681;SDS011;17439;48.092;11.842;2023-02-28T03:09:55;6.80;;;1.75;;
30681;SDS011;17439;48.092;11.842;2023-02-28T03:12:23;4.70;;;2.42;;
30681;SDS011;17439;48.092;11.842;2023-02-28T03:20:15;1.85;;;1.50;;
30681;SDS011;17439;48.092;11.842;2023-02-28T03:22:53;4.10;;;2.05;;
30681;SDS011;17439;48.092;11.842;2023-02-28T03:27:59;2.97;;;1.67;;
30681;SDS011;17439;48.092;11.842;2023-02-28T03:33:17;3.85;;;1.73;;
30681;SDS011;17439;48.092;11.842;2023-02-28T03:35:51;3.42;;;1.70;;
30681;SDS011;17439;48.092;11.842;2023-02-28T03:38:25;3.28;;;1.85;;
30681;SDS011;17439;48.092;11.842;2023-02-28T03:44:21;4.38;;;2.55;;
30681;SDS011;17439;48.092;11.842;2023-02-28T03:49:40;7.38;;;2.00;;
30681;SDS011;17439;48.092;11.842;2023-02-28T03:52:11;7.60;;;2.13;;
30681;SDS011;17439;48.092;11.842;2023-02-28T03:54:40;5.13;;;2.65;;
30681;SDS011;17439;48.092;11.842;2023-02-28T04:00:08;3.95;;;2.22;;
30681;SDS011;17439;48.092;11.842;2023-02-28T04:02:48;4.43;;;1.92;;
30681;SDS011;17439;48.092;11.842;2023-02-28T04:05:14;4.97;;;2.33;;
30681;SDS011;17439;48.092;11.842;2023-02-28T04:07:41;4.85;;;2.17;;
30681;SDS011;17439;48.092;11.842;2023-02-28T04:10:08;4.13;;;2.30;;
30681;SDS011;17439;48.092;11.842;2023-02-28T04:12:35;5.30;;;2.85;;
30681;SDS011;17439;48.092;11.842;2023-02-28T04:15:01;7.30;;;2.53;;
30681;SDS011;17439;48.092;11.842;2023-02-28T04:17:28;7.70;;;2.95;;
30681;SDS011;17439;48.092;11.842;2023-02-28T04:19:55;3.92;;;2.47;;
30681;SDS011;17439;48.092;11.842;2023-02-28T04:22:22;5.47;;;2.42;;
30681;SDS011;17439;48.092;11.842;2023-02-28T04:24:49;6.10;;;2.65;;
30681;SDS011;17439;48.092;11.842;2023-02-28T04:27:15;7.20;;;2.67;;
30681;SDS011;17439;48.092;11.842;2023-02-28T04:29:42;8.30;;;2.38;;
30681;SDS011;17439;48.092;11.842;2023-02-28T04:32:08;4.60;;;2.60;;
30681;SDS011;17439;48.092;11.842;2023-02-28T04:34:35;6.85;;;2.70;;
30681;SDS011;17439;48.092;11.842;2023-02-28T04:37:02;3.55;;;2.10;;
30681;SDS011;17439;48.092;11.842;2023-02-28T04:39:39;7.22;;;2.72;;
30681;SDS011;17439;48.092;11.842;2023-02-28T04:42:06;5.80;;;2.58;;
30681;SDS011;17439;48.092;11.842;2023-02-28T04:44:33;7.15;;;3.08;;
30681;SDS011;17439;48.092;11.842;2023-02-28T04:47:00;5.20;;;2.70;;
30681;SDS011;17439;48.092;11.842;2023-02-28T04:49:27;6.30;;;3.13;;
30681;SDS011;17439;48.092;11.842;2023-02-28T04:51:54;6.85;;;2.67;;
30681;SDS011;17439;48.092;11.842;2023-02-28T04:54:20;5.63;;;2.25;;
30681;SDS011;17439;48.092;11.842;2023-02-28T04:56:47;7.35;;;2.47;;
30681;SDS011;17439;48.092;11.842;2023-02-28T04:59:13;7.43;;;3.00;;
30681;SDS011;17439;48.092;11.842;2023-02-28T05:01:40;7.20;;;3.25;;
30681;SDS011;17439;48.092;11.842;2023-02-28T05:04:12;9.00;;;2.97;;
30681;SDS011;17439;48.092;11.842;2023-02-28T05:06:39;6.53;;;3.33;;
30681;SDS011;17439;48.092;11.842;2023-02-28T05:09:06;6.50;;;3.33;;
30681;SDS011;17439;48.092;11.842;2023-02-28T05:11:33;6.38;;;2.72;;
30681;SDS011;17439;48.092;11.842;2023-02-28T05:14:01;7.43;;;3.17;;
30681;SDS011;17439;48.092;11.842;2023-02-28T05:16:29;7.95;;;3.33;;
30681;SDS011;17439;48.092;11.842;2023-02-28T05:18:56;4.25;;;2.40;;
30681;SDS011;17439;48.092;11.842;2023-02-28T05:21:28;7.90;;;3.00;;
30681;SDS011;17439;48.092;11.842;2023-02-28T05:23:58;4.97;;;2.63;;
30681;SDS011;17439;48.092;11.842;2023-02-28T05:26:26;6.88;;;3.08;;
30681;SDS011;17439;48.092;11.842;2023-02-28T05:28:53;8.05;;;3.05;;
30681;SDS011;17439;48.092;11.842;2023-02-28T05:31:20;8.57;;;3.42;;
30681;SDS011;17439;48.092;11.842;2023-02-28T05:33:46;11.63;;;3.83;;
30681;SDS011;17439;48.092;11.842;2023-02-28T05:36:13;6.22;;;3.55;;
30681;SDS011;17439;48.092;11.842;2023-02-28T05:38:40;9.90;;;3.83;;
30681;SDS011;17439;48.092;11.842;2023-02-28T05:41:07;12.68;;;5.10;;
30681;SDS011;17439;48.092;11.842;2023-02-28T05:46:02;14.90;;;5.53;;
30681;SDS011;17439;48.092;11.842;2023-02-28T05:50:56;11.27;;;5.40;;
30681;SDS011;17439;48.092;11.842;2023-02-28T05:53:24;12.52;;;5.28;;
30681;SDS011;17439;48.092;11.842;2023-02-28T05:55:50;12.93;;;5.60;;
30681;SDS011;17439;48.092;11.842;2023-02-28T05:58:17;13.73;;;5.95;;
30681;SDS011;17439;48.092;11.842;2023-02-28T06:00:43;15.85;;;6.10;;
30681;SDS011;17439;48.092;11.842;2023-02-28T06:03:10;15.43;;;6.93;;
30681;SDS011;17439;48.092;11.842;2023-02-28T06:05:37;18.70;;;7.15;;
30681;SDS011;17439;48.092;11.842;2023-02-28T06:08:04;17.02;;;7.18;;
30681;SDS011;17439;48.092;11.842;2023-02-28T06:10:31;14.93;;;7.38;;
30681;SDS011;17439;48.092;11.842;2023-02-28T06:13:00;14.00;;;6.07;;
30681;SDS011;17439;48.092;11.842;2023-02-28T06:15:27;16.23;;;7.45;;
30681;SDS011;17439;48.092;11.842;2023-02-28T06:17:55;18.75;;;7.90;;
30681;SDS011;17439;48.092;11.842;2023-02-28T06:20:21;19.75;;;8.95;;
30681;SDS011;17439;48.092;11.842;2023-02-28T06:22:49;19.23;;;7.38;;
30681;SDS011;17439;48.092;11.842;2023-02-28T06:25:16;19.10;;;8.98;;
30681;SDS011;17439;48.092;11.842;2023-02-28T06:27:43;17.43;;;6.80;;
30681;SDS011;17439;48.092;11.842;2023-02-28T06:30:10;19.40;;;7.78;;
30681;SDS011;17439;48.092;11.842;2023-02-28T06:32:38;21.85;;;7.82;;
30681;SDS011;17439;48.092;11.842;2023-02-28T06:35:05;20.38;;;9.27;;
30681;SDS011;17439;48.092;11.842;2023-02-28T06:37:32;21.73;;;7.88;;
30681;SDS011;17439;48.092;11.842;2023-02-28T06:39:58;23.05;;;10.68;;
30681;SDS011;17439;48.092;11.842;2023-02-28T06:42:25;21.40;;;8.15;;
30681;SDS011;17439;48.092;11.842;2023-02-28T06:44:51;24.92;;;10.75;;
30681;SDS011;17439;48.092;11.842;2023-02-28T06:47:18;21.08;;;8.77;;
30681;SDS011;17439;48.092;11.842;2023-02-28T06:49:45;19.70;;;8.63;;
30681;SDS011;17439;48.092;11.842;2023-02-28T06:52:11;21.50;;;9.07;;
30681;SDS011;17439;48.092;11.842;2023-02-28T06:54:37;20.35;;;8.57;;
30681;SDS011;17439;48.092;11.842;2023-02-28T06:57:04;17.50;;;8.50;;
30681;SDS011;17439;48.092;11.842;2023-02-28T06:59:31;15.23;;;7.40;;
30681;SDS011;17439;48.092;11.842;2023-02-28T07:01:57;17.85;;;8.27;;
30681;SDS011;17439;48.092;11.842;2023-02-28T07:04:24;20.70;;;9.55;;
30681;SDS011;17439;48.092;11.842;2023-02-28T07:06:51;23.80;;;9.82;;
30681;SDS011;17439;48.092;11.842;2023-02-28T07:09:17;22.58;;;10.05;;
30681;SDS011;17439;48.092;11.842;2023-02-28T07:11:44;25.08;;;9.13;;
30681;SDS011;17439;48.092;11.842;2023-02-28T07:14:10;32.17;;;13.02;;
30681;SDS011;17439;48.092;11.842;2023-02-28T07:16:37;26.15;;;11.73;;
30681;SDS011;17439;48.092;11.842;2023-02-28T07:19:04;22.35;;;9.98;;
30681;SDS011;17439;48.092;11.842;2023-02-28T07:21:30;18.63;;;8.95;;
30681;SDS011;17439;48.092;11.842;2023-02-28T07:23:57;19.45;;;9.93;;
30681;SDS011;17439;48.092;11.842;2023-02-28T07:26:23;25.98;;;10.63;;
30681;SDS011;17439;48.092;11.842;2023-02-28T07:28:50;23.13;;;10.07;;
30681;SDS011;17439;48.092;11.842;2023-02-28T07:31:17;22.85;;;9.82;;
30681;SDS011;17439;48.092;11.842;2023-02-28T07:33:44;21.45;;;9.35;;
30681;SDS011;17439;48.092;11.842;2023-02-28T07:36:12;25.17;;;11.05;;
30681;SDS011;17439;48.092;11.842;2023-02-28T07:38:40;22.23;;;10.90;;
30681;SDS011;17439;48.092;11.842;2023-02-28T07:43:34;24.20;;;9.85;;
30681;SDS011;17439;48.092;11.842;2023-02-28T07:46:02;25.45;;;10.40;;
30681;SDS011;17439;48.092;11.842;2023-02-28T07:48:37;21.42;;;10.15;;
30681;SDS011;17439;48.092;11.842;2023-02-28T07:51:03;33.22;;;11.45;;
30681;SDS011;17439;48.092;11.842;2023-02-28T07:53:30;31.52;;;10.48;;
30681;SDS011;17439;48.092;11.842;2023-02-28T07:55:57;24.42;;;10.15;;
30681;SDS011;17439;48.092;11.842;2023-02-28T07:58:25;24.08;;;11.38;;
30681;SDS011;17439;48.092;11.842;2023-02-28T08:00:52;22.13;;;8.17;;
30681;SDS011;17439;48.092;11.842;2023-02-28T08:03:19;18.60;;;9.30;;
30681;SDS011;17439;48.092;11.842;2023-02-28T08:05:47;21.95;;;9.98;;
30681;SDS011;17439;48.092;11.842;2023-02-28T08:08:15;22.95;;;10.40;;
30681;SDS011;17439;48.092;11.842;2023-02-28T08:10:42;19.48;;;9.65;;
30681;SDS011;17439;48.092;11.842;2023-02-28T08:13:09;21.98;;;9.90;;
30681;SDS011;17439;48.092;11.842;2023-02-28T08:15:36;21.40;;;10.10;;
30681;SDS011;17439;48.092;11.842;2023-02-28T08:18:02;22.65;;;10.35;;
30681;SDS011;17439;48.092;11.842;2023-02-28T08:20:29;22.88;;;11.20;;
30681;SDS011;17439;48.092;11.842;2023-02-28T08:22:56;20.85;;;10.25;;
30681;SDS011;17439;48.092;11.842;2023-02-28T08:25:22;18.20;;;9.80;;
30681;SDS011;17439;48.092;11.842;2023-02-28T08:27:50;19.23;;;9.15;;
30681;SDS011;17439;48.092;11.842;2023-02-28T08:30:18;23.02;;;10.82;;
30681;SDS011;17439;48.092;11.842;2023-02-28T08:32:45;19.60;;;9.70;;
30681;SDS011;17439;48.092;11.842;2023-02-28T08:35:11;20.20;;;9.45;;
30681;SDS011;17439;48.092;11.842;2023-02-28T08:37:38;24.80;;;10.70;;
30681;SDS011;17439;48.092;11.842;2023-02-28T08:40:05;22.90;;;11.52;;
30681;SDS011;17439;48.092;11.842;2023-02-28T08:42:32;24.52;;;10.73;;
30681;SDS011;17439;48.092;11.842;2023-02-28T08:44:59;21.60;;;10.25;;
30681;SDS011;17439;48.092;11.842;2023-02-28T08:47:25;24.33;;;12.55;;
30681;SDS011;17439;48.092;11.842;2023-02-28T08:49:52;26.30;;;13.18;;
30681;SDS011;17439;48.092;11.842;2023-02-28T08:52:19;22.27;;;10.23;;
30681;SDS011;17439;48.092;11.842;2023-02-28T08:54:45;22.80;;;10.45;;
30681;SDS011;17439;48.092;11.842;2023-02-28T08:57:12;22.25;;;10.73;;
30681;SDS011;17439;48.092;11.842;2023-02-28T08:59:38;20.15;;;10.07;;
30681;SDS011;17439;48.092;11.842;2023-02-28T09:02:05;20.48;;;10.05;;
30681;SDS011;17439;48.092;11.842;2023-02-28T09:04:33;17.25;;;8.98;;
30681;SDS011;17439;48.092;11.842;2023-02-28T09:07:00;22.02;;;10.40;;
30681;SDS011;17439;48.092;11.842;2023-02-28T09:09:26;23.30;;;10.13;;
30681;SDS011;17439;48.092;11.842;2023-02-28T09:11:55;21.33;;;10.32;;
30681;SDS011;17439;48.092;11.842;2023-02-28T09:14:22;20.23;;;9.43;;
30681;SDS011;17439;48.092;11.842;2023-02-28T09:16:49;21.15;;;10.20;;
30681;SDS011;17439;48.092;11.842;2023-02-28T09:19:15;23.73;;;10.05;;
30681;SDS011;17439;48.092;11.842;2023-02-28T09:21:42;20.77;;;10.98;;
30681;SDS011;17439;48.092;11.842;2023-02-28T09:24:09;27.58;;;12.00;;
30681;SDS011;17439;48.092;11.842;2023-02-28T09:26:35;24.40;;;11.38;;
30681;SDS011;17439;48.092;11.842;2023-02-28T09:29:16;23.05;;;11.10;;
30681;SDS011;17439;48.092;11.842;2023-02-28T09:31:43;24.08;;;11.45;;
30681;SDS011;17439;48.092;11.842;2023-02-28T09:34:09;25.42;;;9.70;;
30681;SDS011;17439;48.092;11.842;2023-02-28T09:36:36;21.95;;;10.52;;
30681;SDS011;17439;48.092;11.842;2023-02-28T09:39:10;20.58;;;10.10;;
30681;SDS011;17439;48.092;11.842;2023-02-28T09:41:39;23.75;;;11.73;;
30681;SDS011;17439;48.092;11.842;2023-02-28T09:44:09;23.77;;;11.07;;
30681;SDS011;17439;48.092;11.842;2023-02-28T09:46:43;23.48;;;10.55;;
30681;SDS011;17439;48.092;11.842;2023-02-28T09:49:18;19.92;;;9.52;;
30681;SDS011;17439;48.092;11.842;2023-02-28T09:51:55;26.60;;;11.48;;
30681;SDS011;17439;48.092;11.842;2023-02-28T09:54:27;22.95;;;11.38;;
30681;SDS011;17439;48.092;11.842;2023-02-28T09:56:58;24.50;;;12.48;;
30681;SDS011;17439;48.092;11.842;2023-02-28T09:59:37;26.65;;;11.63;;
30681;SDS011;17439;48.092;11.842;2023-02-28T10:02:11;22.23;;;10.80;;
30681;SDS011;17439;48.092;11.842;2023-02-28T10:10:43;25.30;;;10.25;;
30681;SDS011;17439;48.092;11.842;2023-02-28T10:15:55;28.38;;;12.20;;
30681;SDS011;17439;48.092;11.842;2023-02-28T10:18:27;22.40;;;12.15;;
30681;SDS011;17439;48.092;11.842;2023-02-28T10:21:09;20.27;;;10.13;;
30681;SDS011;17439;48.092;11.842;2023-02-28T10:23:45;22.60;;;10.90;;
30681;SDS011;17439;48.092;11.842;2023-02-28T10:26:12;22.67;;;11.32;;
30681;SDS011;17439;48.092;11.842;2023-02-28T10:28:41;23.85;;;11.57;;
30681;SDS011;17439;48.092;11.842;2023-02-28T10:31:11;28.48;;;13.30;;
30681;SDS011;17439;48.092;11.842;2023-02-28T10:33:40;23.35;;;12.20;;
30681;SDS011;17439;48.092;11.842;2023-02-28T10:36:08;27.17;;;12.10;;
30681;SDS011;17439;48.092;11.842;2023-02-28T10:38:40;23.70;;;12.30;;
30681;SDS011;17439;48.092;11.842;2023-02-28T10:41:08;27.80;;;13.18;;
30681;SDS011;17439;48.092;11.842;2023-02-28T10:43:41;28.50;;;12.90;;
30681;SDS011;17439;48.092;11.842;2023-02-28T10:48:36;27.58;;;12.32;;
30681;SDS011;17439;48.092;11.842;2023-02-28T10:51:09;22.92;;;11.35;;
30681;SDS011;17439;48.092;11.842;2023-02-28T10:56:26;26.33;;;11.65;;
30681;SDS011;17439;48.092;11.842;2023-02-28T11:03:58;23.35;;;9.48;;
30681;SDS011;17439;48.092;11.842;2023-02-28T11:06:32;24.17;;;12.13;;
30681;SDS011;17439;48.092;11.842;2023-02-28T11:09:15;27.90;;;10.20;;
30681;SDS011;17439;48.092;11.842;2023-02-28T11:11:47;24.45;;;12.00;;
30681;SDS011;17439;48.092;11.842;2023-02-28T11:14:22;24.63;;;12.35;;
30681;SDS011;17439;48.092;11.842;2023-02-28T11:16:52;25.30;;;10.93;;
30681;SDS011;17439;48.092;11.842;2023-02-28T11:21:57;21.38;;;9.85;;
30681;SDS011;17439;48.092;11.842;2023-02-28T11:24:30;22.50;;;11.52;;
30681;SDS011;17439;48.092;11.842;2023-02-28T11:27:01;21.92;;;10.82;;
30681;SDS011;17439;48.092;11.842;2023-02-28T11:29:31;20.60;;;11.23;;
30681;SDS011;17439;48.092;11.842;2023-02-28T11:34:46;22.00;;;11.25;;
30681;SDS011;17439;48.092;11.842;2023-02-28T11:37:26;24.20;;;11.50;;
30681;SDS011;17439;48.092;11.842;2023-02-28T11:39:54;25.92;;;12.13;;
30681;SDS011;17439;48.092;11.842;2023-02-28T11:45:04;24.23;;;12.30;;
30681;SDS011;17439;48.092;11.842;2023-02-28T11:47:32;22.23;;;12.50;;
30681;SDS011;17439;48.092;11.842;2023-02-28T11:50:54;22.13;;;11.27;;
30681;SDS011;17439;48.092;11.842;2023-02-28T11:53:16;23.63;;;11.75;;
30681;SDS011;17439;48.092;11.842;2023-02-28T11:55:52;24.60;;;11.82;;
30681;SDS011;17439;48.092;11.842;2023-02-28T11:58:33;22.95;;;11.82;;
30681;SDS011;17439;48.092;11.842;2023-02-28T12:03:44;21.35;;;11.45;;
30681;SDS011;17439;48.092;11.842;2023-02-28T12:06:38;21.55;;;11.60;;
30681;SDS011;17439;48.092;11.842;2023-02-28T12:09:33;26.13;;;11.68;;
30681;SDS011;17439;48.092;11.842;2023-02-28T12:26:05;22.65;;;9.95;;
30681;SDS011;17439;48.092;11.842;2023-02-28T12:28:54;26.80;;;12.60;;
30681;SDS011;17439;48.092;11.842;2023-02-28T12:31:36;23.52;;;11.15;;
30681;SDS011;17439;48.092;11.842;2023-02-28T12:34:07;20.52;;;9.85;;
30681;SDS011;17439;48.092;11.842;2023-02-28T12:36:39;21.80;;;11.15;;
30681;SDS011;17439;48.092;11.842;2023-02-28T12:39:44;23.95;;;11.88;;
30681;SDS011;17439;48.092;11.842;2023-02-28T12:42:24;22.95;;;11.93;;
30681;SDS011;17439;48.092;11.842;2023-02-28T12:44:52;23.30;;;11.38;;
30681;SDS011;17439;48.092;11.842;2023-02-28T12:47:23;21.35;;;11.05;;
30681;SDS011;17439;48.092;11.842;2023-02-28T12:49:51;24.33;;;12.65;;
30681;SDS011;17439;48.092;11.842;2023-02-28T12:58:30;23.73;;;12.00;;
30681;SDS011;17439;48.092;11.842;2023-02-28T13:06:58;23.23;;;12.00;;
30681;SDS011;17439;48.092;11.842;2023-02-28T13:09:34;21.15;;;10.60;;
30681;SDS011;17439;48.092;11.842;2023-02-28T13:12:01;23.52;;;11.30;;
30681;SDS011;17439;48.092;11.842;2023-02-28T13:14:40;20.65;;;9.63;;
30681;SDS011;17439;48.092;11.842;2023-02-28T13:19:34;24.35;;;11.55;;
30681;SDS011;17439;48.092;11.842;2023-02-28T13:22:05;25.58;;;12.20;;
30681;SDS011;17439;48.092;11.842;2023-02-28T13:29:40;22.00;;;11.35;;
30681;SDS011;17439;48.092;11.842;2023-02-28T13:34:36;25.33;;;12.75;;
30681;SDS011;17439;48.092;11.842;2023-02-28T13:39:50;23.60;;;12.32;;
30681;SDS011;17439;48.092;11.842;2023-02-28T13:48:14;22.55;;;11.48;;
30681;SDS011;17439;48.092;11.842;2023-02-28T13:50:23;25.70;;;11.65;;
30681;SDS011;17439;48.092;11.842;2023-02-28T13:58:10;23.73;;;11.35;;
30681;SDS011;17439;48.092;11.842;2023-02-28T14:01:16;20.52;;;10.57;;
30681;SDS011;17439;48.092;11.842;2023-02-28T14:11:38;19.58;;;10.70;;
30681;SDS011;17439;48.092;11.842;2023-02-28T14:14:07;20.63;;;10.27;;
30681;SDS011;17439;48.092;11.842;2023-02-28T14:16:37;23.20;;;10.80;;
30681;SDS011;17439;48.092;11.842;2023-02-28T14:19:40;19.08;;;9.93;;
30681;SDS011;17439;48.092;11.842;2023-02-28T14:25:22;19.35;;;8.63;;
30681;SDS011;17439;48.092;11.842;2023-02-28T14:31:13;22.20;;;9.93;;
30681;SDS011;17439;48.092;11.842;2023-02-28T14:33:45;20.52;;;9.98;;
30681;SDS011;17439;48.092;11.842;2023-02-28T14:36:35;18.70;;;10.07;;
30681;SDS011;17439;48.092;11.842;2023-02-28T14:39:06;20.80;;;10.02;;
30681;SDS011;17439;48.092;11.842;2023-02-28T14:41:39;21.85;;;9.32;;
30681;SDS011;17439;48.092;11.842;2023-02-28T14:44:18;22.30;;;10.45;;
30681;SDS011;17439;48.092;11.842;2023-02-28T14:46:50;19.70;;;9.38;;
30681;SDS011;17439;48.092;11.842;2023-02-28T14:54:55;16.80;;;7.82;;
30681;SDS011;17439;48.092;11.842;2023-02-28T14:57:28;14.00;;;7.15;;
30681;SDS011;17439;48.092;11.842;2023-02-28T15:00:22;18.52;;;8.05;;
30681;SDS011;17439;48.092;11.842;2023-02-28T15:02:51;18.83;;;9.15;;
30681;SDS011;17439;48.092;11.842;2023-02-28T15:08:03;15.77;;;9.13;;
30681;SDS011;17439;48.092;11.842;2023-02-28T15:10:30;18.60;;;8.18;;
30681;SDS011;17439;48.092;11.842;2023-02-28T15:13:01;22.50;;;10.47;;
30681;SDS011;17439;48.092;11.842;2023-02-28T15:15:35;17.38;;;8.48;;
30681;SDS011;17439;48.092;11.842;2023-02-28T15:18:31;18.80;;;7.75;;
30681;SDS011;17439;48.092;11.842;2023-02-28T15:21:06;18.63;;;7.57;;
30681;SDS011;17439;48.092;11.842;2023-02-28T15:23:37;16.17;;;8.05;;
30681;SDS011;17439;48.092;11.842;2023-02-28T15:26:06;19.23;;;9.50;;
30681;SDS011;17439;48.092;11.842;2023-02-28T15:28:36;17.40;;;8.55;;
30681;SDS011;17439;48.092;11.842;2023-02-28T15:31:03;14.23;;;7.32;;
30681;SDS011;17439;48.092;11.842;2023-02-28T15:33:53;16.27;;;7.82;;
30681;SDS011;17439;48.092;11.842;2023-02-28T15:36:24;19.30;;;7.65;;
30681;SDS011;17439;48.092;11.842;2023-02-28T15:38:55;18.70;;;7.90;;
30681;SDS011;17439;48.092;11.842;2023-02-28T15:41:36;19.85;;;8.70;;
30681;SDS011;17439;48.092;11.842;2023-02-28T15:47:04;17.83;;;8.55;;
30681;SDS011;17439;48.092;11.842;2023-02-28T15:49:52;17.55;;;8.63;;
30681;SDS011;17439;48.092;11.842;2023-02-28T15:52:23;14.90;;;7.05;;
30681;SDS011;17439;48.092;11.842;2023-02-28T15:54:55;19.75;;;8.48;;
30681;SDS011;17439;48.092;11.842;2023-02-28T15:57:23;16.33;;;7.13;;
30681;SDS011;17439;48.092;11.842;2023-02-28T15:59:58;21.38;;;8.85;;
30681;SDS011;17439;48.092;11.842;2023-02-28T16:02:37;18.35;;;6.88;;
30681;SDS011;17439;48.092;11.842;2023-02-28T16:07:34;16.90;;;8.73;;
30681;SDS011;17439;48.092;11.842;2023-02-28T16:10:09;16.25;;;8.43;;
30681;SDS011;17439;48.092;11.842;2023-02-28T16:12:38;16.27;;;6.97;;
30681;SDS011;17439;48.092;11.842;2023-02-28T16:15:06;15.13;;;7.25;;
30681;SDS011;17439;48.092;11.842;2023-02-28T16:17:37;18.98;;;8.50;;
30681;SDS011;17439;48.092;11.842;2023-02-28T16:20:11;15.85;;;7.60;;
30681;SDS011;17439;48.092;11.842;2023-02-28T16:22:39;15.27;;;7.43;;
30681;SDS011;17439;48.092;11.842;2023-02-28T16:25:06;15.80;;;8.13;;
30681;SDS011;17439;48.092;11.842;2023-02-28T16:27:33;17.02;;;7.53;;
30681;SDS011;17439;48.092;11.842;2023-02-28T16:30:03;14.32;;;7.00;;
30681;SDS011;17439;48.092;11.842;2023-02-28T16:32:32;15.77;;;7.40;;
30681;SDS011;17439;48.092;11.842;2023-02-28T16:35:01;11.68;;;5.95;;
30681;SDS011;17439;48.092;11.842;2023-02-28T16:37:28;14.18;;;6.38;;
30681;SDS011;17439;48.092;11.842;2023-02-28T16:39:54;14.77;;;6.47;;
30681;SDS011;17439;48.092;11.842;2023-02-28T16:42:25;18.42;;;7.50;;
30681;SDS011;17439;48.092;11.842;2023-02-28T16:44:54;13.05;;;5.97;;
30681;SDS011;17439;48.092;11.842;2023-02-28T16:47:21;23.98;;;6.15;;
30681;SDS011;17439;48.092;11.842;2023-02-28T16:49:48;11.10;;;5.72;;
30681;SDS011;17439;48.092;11.842;2023-02-28T16:52:15;13.73;;;6.03;;
30681;SDS011;17439;48.092;11.842;2023-02-28T16:54:41;13.40;;;6.00;;
30681;SDS011;17439;48.092;11.842;2023-02-28T16:57:21;15.93;;;5.53;;
30681;SDS011;17439;48.092;11.842;2023-02-28T16:59:49;12.55;;;6.25;;
30681;SDS011;17439;48.092;11.842;2023-02-28T17:02:16;14.40;;;6.37;;
30681;SDS011;17439;48.092;11.842;2023-02-28T17:04:44;10.30;;;5.43;;
30681;SDS011;17439;48.092;11.842;2023-02-28T17:07:12;15.57;;;6.13;;
30681;SDS011;17439;48.092;11.842;2023-02-28T17:09:40;14.95;;;6.68;;
30681;SDS011;17439;48.092;11.842;2023-02-28T17:12:10;14.23;;;6.60;;
30681;SDS011;17439;48.092;11.842;2023-02-28T17:14:37;15.75;;;6.45;;
30681;SDS011;17439;48.092;11.842;2023-02-28T17:17:05;11.70;;;4.85;;
30681;SDS011;17439;48.092;11.842;2023-02-28T17:19:32;8.73;;;4.47;;
30681;SDS011;17439;48.092;11.842;2023-02-28T17:21:58;10.45;;;5.38;;